PWSweather.com
Personal Weather Stations
Station Observations
BARMORENO
El Ranal, Torre Del CampoES 23640

El RanalTorre Del CampoES 23640

Lat: 37.7683675, Lon: -3.9027072

Elevation: 2198.162

Station Type: PCE-FWS 20

http://www.bartolomemoreno.com/tiempo

Latest ConditionsUpdated 11:10:00 PM GMT+01:01 Saturday, Feb 23, 2019
Currently Today's Max Today's Min Today's Average
Temperature 54.7°F12.6°C 65.7°F18.7°C 46.8°F8.2°C 56.0°F13.3°C
Dew Point 34.3°F1.3°C 36.4°F2.4°C 23.5°F-4.7°C 29.9°F-1.2°C
Winds 5.6 mph S9.0 kmh S 7.6 mph -12.2 kmh - - 4.4 mph 7.1 kmh
Wind Gusts 9.2 mph14.8 kmh 15.9 mph25.6 kmh - -
Humidity 46% 52% 21% 38%
Pressure 30.22 in1023.4 mb 30.30 in1026.1 mb 30.20 in1022.7 mb -
Hour Temp Dew Point Humidity Winds Wind Gusts Pressure Precip Precip Rate Daily Precip Total
11:10 PM 54.7°F12.6°C 34.3°F1.3°C 46% 5.6 mph S9.0 kmh S 9.2 mph14.8 kmh 30.22 in1023.4 mb 0.00 in0.0 mm 0.00 in0.0 mm 0.00 in0.0 mm
11:05 PM 54.5°F12.5°C 34.2°F1.2°C 46% 4.8 mph S7.7 kmh S 8.3 mph13.4 kmh 30.22 in1023.4 mb 0.00 in0.0 mm 0.00 in0.0 mm 0.00 in0.0 mm
11:00 PM 54.3°F12.4°C 34.0°F1.1°C 46% 4.3 mph S6.9 kmh S 7.6 mph12.2 kmh 30.22 in1023.4 mb 0.00 in0.0 mm 0.00 in0.0 mm 0.00 in0.0 mm
10:55 PM 54.3°F12.4°C 34.5°F1.4°C 47% 4.3 mph S6.9 kmh S 7.6 mph12.2 kmh 30.22 in1023.4 mb 0.00 in0.0 mm 0.00 in0.0 mm 0.00 in0.0 mm
10:50 PM 54.0°F12.2°C 33.7°F0.9°C 46% 4.0 mph S6.4 kmh S 7.6 mph12.2 kmh 30.22 in1023.4 mb 0.00 in0.0 mm 0.00 in0.0 mm 0.00 in0.0 mm
10:45 PM 54.1°F12.3°C 33.8°F1.0°C 46% 3.9 mph S6.3 kmh S 6.9 mph11.1 kmh 30.22 in1023.4 mb 0.00 in0.0 mm 0.00 in0.0 mm 0.00 in0.0 mm
10:40 PM 54.1°F12.3°C 33.8°F1.0°C 46% 4.3 mph S6.9 kmh S 7.6 mph12.2 kmh 30.22 in1023.4 mb 0.00 in0.0 mm 0.00 in0.0 mm 0.00 in0.0 mm
10:35 PM 54.3°F12.4°C 33.4°F0.8°C 45% 4.2 mph S6.8 kmh S 7.6 mph12.2 kmh 30.23 in1023.7 mb 0.00 in0.0 mm 0.00 in0.0 mm 0.00 in0.0 mm
10:30 PM 54.3°F12.4°C 33.4°F0.8°C 45% 3.3 mph S5.3 kmh S 6.9 mph11.1 kmh 30.22 in1023.4 mb 0.00 in0.0 mm 0.00 in0.0 mm 0.00 in0.0 mm
10:25 PM 54.7°F12.6°C 33.2°F0.7°C 44% 2.4 mph S3.9 kmh S 4.5 mph7.2 kmh 30.23 in1023.7 mb 0.00 in0.0 mm 0.00 in0.0 mm 0.00 in0.0 mm
10:20 PM 54.7°F12.6°C 33.2°F0.7°C 44% 2.1 mph S3.4 kmh S 4.5 mph7.2 kmh 30.22 in1023.4 mb 0.00 in0.0 mm 0.00 in0.0 mm 0.00 in0.0 mm
10:15 PM 55.0°F12.8°C 33.0°F0.6°C 43% 2.3 mph S3.7 kmh S 4.5 mph7.2 kmh 30.22 in1023.4 mb 0.00 in0.0 mm 0.00 in0.0 mm 0.00 in0.0 mm
10:10 PM 55.0°F12.8°C 32.4°F0.2°C 42% 2.1 mph S3.4 kmh S 4.5 mph7.2 kmh 30.22 in1023.4 mb 0.00 in0.0 mm 0.00 in0.0 mm 0.00 in0.0 mm
10:05 PM 55.2°F12.9°C 32.5°F0.3°C 42% 2.6 mph S4.2 kmh S 6.9 mph11.1 kmh 30.22 in1023.4 mb 0.00 in0.0 mm 0.00 in0.0 mm 0.00 in0.0 mm
10:00 PM 55.2°F12.9°C 32.5°F0.3°C 42% 3.8 mph S6.1 kmh S 7.6 mph12.2 kmh 30.22 in1023.4 mb 0.00 in0.0 mm 0.00 in0.0 mm 0.00 in0.0 mm
09:55 PM 55.2°F12.9°C 31.9°F-0.1°C 41% 3.6 mph S5.8 kmh S 7.6 mph12.2 kmh 30.22 in1023.4 mb 0.00 in0.0 mm 0.00 in0.0 mm 0.00 in0.0 mm
09:50 PM 55.2°F12.9°C 31.9°F-0.1°C 41% 3.2 mph S5.1 kmh S 6.0 mph9.7 kmh 30.22 in1023.4 mb 0.00 in0.0 mm 0.00 in0.0 mm 0.00 in0.0 mm
09:45 PM 55.2°F12.9°C 31.9°F-0.1°C 41% 3.1 mph S5.0 kmh S 6.0 mph9.7 kmh 30.22 in1023.4 mb 0.00 in0.0 mm 0.00 in0.0 mm 0.00 in0.0 mm
09:40 PM 55.2°F12.9°C 31.9°F-0.1°C 41% 3.2 mph S5.1 kmh S 5.4 mph8.7 kmh 30.22 in1023.4 mb 0.00 in0.0 mm 0.00 in0.0 mm 0.00 in0.0 mm
09:35 PM 55.6°F13.1°C 30.4°F-0.9°C 38% 3.3 mph S5.3 kmh S 6.0 mph9.7 kmh 30.22 in1023.4 mb 0.00 in0.0 mm 0.00 in0.0 mm 0.00 in0.0 mm
09:30 PM 55.9°F13.3°C 30.7°F-0.7°C 38% 3.0 mph SSW4.8 kmh SSW 6.0 mph9.7 kmh 30.22 in1023.4 mb 0.00 in0.0 mm 0.00 in0.0 mm 0.00 in0.0 mm
09:25 PM 56.5°F13.6°C 30.5°F-0.8°C 37% 3.7 mph S6.0 kmh S 8.3 mph13.4 kmh 30.22 in1023.4 mb 0.00 in0.0 mm 0.00 in0.0 mm 0.00 in0.0 mm
09:20 PM 56.7°F13.7°C 30.7°F-0.7°C 37% 4.7 mph S7.6 kmh S 8.3 mph13.4 kmh 30.22 in1023.4 mb 0.00 in0.0 mm 0.00 in0.0 mm 0.00 in0.0 mm
09:15 PM 56.7°F13.7°C 30.0°F-1.1°C 36% 4.6 mph S7.4 kmh S 8.3 mph13.4 kmh 30.22 in1023.4 mb 0.00 in0.0 mm 0.00 in0.0 mm 0.00 in0.0 mm
09:10 PM 57.0°F13.9°C 30.3°F-0.9°C 36% 4.9 mph S7.9 kmh S 8.3 mph13.4 kmh 30.21 in1023.0 mb 0.00 in0.0 mm 0.00 in0.0 mm 0.00 in0.0 mm
09:05 PM 57.0°F13.9°C 30.3°F-0.9°C 36% 5.5 mph S8.9 kmh S 9.2 mph14.8 kmh 30.21 in1023.0 mb 0.00 in0.0 mm 0.00 in0.0 mm 0.00 in0.0 mm
09:00 PM 56.8°F13.8°C 30.9°F-0.6°C 37% 5.9 mph S9.5 kmh S 9.8 mph15.8 kmh 30.21 in1023.0 mb 0.00 in0.0 mm 0.00 in0.0 mm 0.00 in0.0 mm
08:55 PM 56.3°F13.5°C 31.0°F-0.6°C 38% 5.9 mph S9.5 kmh S 9.8 mph15.8 kmh 30.21 in1023.0 mb 0.00 in0.0 mm 0.00 in0.0 mm 0.00 in0.0 mm
08:50 PM 56.1°F13.4°C 30.9°F-0.6°C 38% 5.7 mph S9.2 kmh S 9.8 mph15.8 kmh 30.22 in1023.4 mb 0.00 in0.0 mm 0.00 in0.0 mm 0.00 in0.0 mm
08:45 PM 55.8°F13.2°C 31.2°F-0.4°C 39% 5.1 mph S8.2 kmh S 8.3 mph13.4 kmh 30.22 in1023.4 mb 0.00 in0.0 mm 0.00 in0.0 mm 0.00 in0.0 mm
08:40 PM 55.2°F12.9°C 31.3°F-0.4°C 40% 4.7 mph S7.6 kmh S 8.3 mph13.4 kmh 30.21 in1023.0 mb 0.00 in0.0 mm 0.00 in0.0 mm 0.00 in0.0 mm
08:35 PM 54.9°F12.7°C 31.6°F-0.2°C 41% 4.2 mph S6.8 kmh S 7.6 mph12.2 kmh 30.21 in1023.0 mb 0.00 in0.0 mm 0.00 in0.0 mm 0.00 in0.0 mm
08:30 PM 54.5°F12.5°C 31.3°F-0.4°C 41% 3.4 mph S5.5 kmh S 5.4 mph8.7 kmh 30.22 in1023.4 mb 0.00 in0.0 mm 0.00 in0.0 mm 0.00 in0.0 mm
08:25 PM 54.5°F12.5°C 31.3°F-0.4°C 41% 2.8 mph S4.5 kmh S 4.5 mph7.2 kmh 30.22 in1023.4 mb 0.00 in0.0 mm 0.00 in0.0 mm 0.00 in0.0 mm
08:20 PM 54.5°F12.5°C 30.7°F-0.7°C 40% 2.8 mph S4.5 kmh S 6.9 mph11.1 kmh 30.22 in1023.4 mb 0.00 in0.0 mm 0.00 in0.0 mm 0.00 in0.0 mm
08:15 PM 54.3°F12.4°C 30.5°F-0.8°C 40% 3.4 mph S5.5 kmh S 6.9 mph11.1 kmh 30.22 in1023.4 mb 0.00 in0.0 mm 0.00 in0.0 mm 0.00 in0.0 mm
08:10 PM 54.3°F12.4°C 29.9°F-1.2°C 39% 4.0 mph S6.4 kmh S 6.0 mph9.7 kmh 30.22 in1023.4 mb 0.00 in0.0 mm 0.00 in0.0 mm 0.00 in0.0 mm
08:05 PM 54.7°F12.6°C 29.6°F-1.3°C 38% 3.7 mph S6.0 kmh S 6.0 mph9.7 kmh 30.21 in1023.0 mb 0.00 in0.0 mm 0.00 in0.0 mm 0.00 in0.0 mm
08:00 PM 54.7°F12.6°C 29.6°F-1.3°C 38% 3.1 mph S5.0 kmh S 6.0 mph9.7 kmh 30.21 in1023.0 mb 0.00 in0.0 mm 0.00 in0.0 mm 0.00 in0.0 mm
07:55 PM 54.7°F12.6°C 28.9°F-1.7°C 37% 3.6 mph S5.8 kmh S 6.0 mph9.7 kmh 30.21 in1023.0 mb 0.00 in0.0 mm 0.00 in0.0 mm 0.00 in0.0 mm
07:50 PM 54.7°F12.6°C 28.9°F-1.7°C 37% 4.5 mph S7.2 kmh S 7.6 mph12.2 kmh 30.21 in1023.0 mb 0.00 in0.0 mm 0.00 in0.0 mm 0.00 in0.0 mm
07:45 PM 54.7°F12.6°C 28.9°F-1.7°C 37% 4.7 mph S7.6 kmh S 7.6 mph12.2 kmh 30.21 in1023.0 mb 0.00 in0.0 mm 0.00 in0.0 mm 0.00 in0.0 mm
07:40 PM 55.0°F12.8°C 28.6°F-1.9°C 36% 4.5 mph S7.2 kmh S 7.6 mph12.2 kmh 30.21 in1023.0 mb 0.00 in0.0 mm 0.00 in0.0 mm 0.00 in0.0 mm
07:35 PM 55.2°F12.9°C 28.1°F-2.2°C 35% 4.4 mph S7.1 kmh S 7.6 mph12.2 kmh 30.21 in1023.0 mb 0.00 in0.0 mm 0.00 in0.0 mm 0.00 in0.0 mm
07:30 PM 55.4°F13.0°C 28.9°F-1.7°C 36% 4.5 mph S7.2 kmh S 8.3 mph13.4 kmh 30.21 in1023.0 mb 0.00 in0.0 mm 0.00 in0.0 mm 0.00 in0.0 mm
07:25 PM 55.4°F13.0°C 28.9°F-1.7°C 36% 4.3 mph S6.9 kmh S 8.3 mph13.4 kmh 30.21 in1023.0 mb 0.00 in0.0 mm 0.00 in0.0 mm 0.00 in0.0 mm
07:20 PM 55.6°F13.1°C 29.1°F-1.6°C 36% 3.7 mph S6.0 kmh S 6.9 mph11.1 kmh 30.20 in1022.7 mb 0.00 in0.0 mm 0.00 in0.0 mm 0.00 in0.0 mm
07:15 PM 55.9°F13.3°C 28.7°F-1.8°C 35% 3.3 mph S5.3 kmh S 5.4 mph8.7 kmh 30.21 in1023.0 mb 0.00 in0.0 mm 0.00 in0.0 mm 0.00 in0.0 mm
07:10 PM 56.1°F13.4°C 28.9°F-1.7°C 35% 3.3 mph S5.3 kmh S 5.4 mph8.7 kmh 30.20 in1022.7 mb 0.00 in0.0 mm 0.00 in0.0 mm 0.00 in0.0 mm
07:05 PM 56.1°F13.4°C 28.9°F-1.7°C 35% 3.6 mph S5.8 kmh S 8.3 mph13.4 kmh 30.20 in1022.7 mb 0.00 in0.0 mm 0.00 in0.0 mm 0.00 in0.0 mm
07:00 PM 56.3°F13.5°C 29.0°F-1.7°C 35% 3.5 mph S5.6 kmh S 8.3 mph13.4 kmh 30.20 in1022.7 mb 0.00 in0.0 mm 0.00 in0.0 mm 0.00 in0.0 mm
06:55 PM 56.5°F13.6°C 29.2°F-1.6°C 35% 3.4 mph S5.5 kmh S 6.0 mph9.7 kmh 30.20 in1022.7 mb 0.00 in0.0 mm 0.00 in0.0 mm 0.00 in0.0 mm
06:50 PM 56.8°F13.8°C 29.5°F-1.4°C 35% 3.5 mph S5.6 kmh S 6.0 mph9.7 kmh 30.20 in1022.7 mb 0.00 in0.0 mm 0.00 in0.0 mm 0.00 in0.0 mm
06:45 PM 57.6°F14.2°C 29.4°F-1.4°C 34% 2.8 mph S4.5 kmh S 6.0 mph9.7 kmh 30.20 in1022.7 mb 0.00 in0.0 mm 0.00 in0.0 mm 0.00 in0.0 mm
06:40 PM 58.1°F14.5°C 29.9°F-1.2°C 34% 2.6 mph S4.2 kmh S 4.5 mph7.2 kmh 30.20 in1022.7 mb 0.00 in0.0 mm 0.00 in0.0 mm 0.00 in0.0 mm
06:35 PM 58.8°F14.9°C 29.8°F-1.2°C 33% 2.4 mph S3.9 kmh S 4.5 mph7.2 kmh 30.20 in1022.7 mb 0.00 in0.0 mm 0.00 in0.0 mm 0.00 in0.0 mm
06:30 PM 59.2°F15.1°C 29.4°F-1.4°C 32% 1.9 mph S3.1 kmh S 4.5 mph7.2 kmh 30.20 in1022.7 mb 0.00 in0.0 mm 0.00 in0.0 mm 0.00 in0.0 mm
06:25 PM 59.5°F15.3°C 29.7°F-1.3°C 32% 1.9 mph S3.1 kmh S 4.5 mph7.2 kmh 30.20 in1022.7 mb 0.00 in0.0 mm 0.00 in0.0 mm 0.00 in0.0 mm
06:20 PM 60.1°F15.6°C 29.4°F-1.4°C 31% 1.5 mph S2.4 kmh S 4.5 mph7.2 kmh 30.20 in1022.7 mb 0.00 in0.0 mm 0.00 in0.0 mm 0.00 in0.0 mm
06:15 PM 61.0°F16.1°C 27.7°F-2.4°C 28% 1.2 mph SSE1.9 kmh SSE 3.1 mph5.0 kmh 30.20 in1022.7 mb 0.00 in0.0 mm 0.00 in0.0 mm 0.00 in0.0 mm
06:10 PM 61.7°F16.5°C 27.4°F-2.6°C 27% 1.2 mph SSE1.9 kmh SSE 3.1 mph5.0 kmh 30.20 in1022.7 mb 0.00 in0.0 mm 0.00 in0.0 mm 0.00 in0.0 mm
06:05 PM 62.8°F17.1°C 25.5°F-3.6°C 24% 1.2 mph SE1.9 kmh SE 3.1 mph5.0 kmh 30.20 in1022.7 mb 0.00 in0.0 mm 0.00 in0.0 mm 0.00 in0.0 mm
06:00 PM 63.7°F17.6°C 25.2°F-3.8°C 23% 0.7 mph ENE1.1 kmh ENE 2.2 mph3.5 kmh 30.20 in1022.7 mb 0.00 in0.0 mm 0.00 in0.0 mm 0.00 in0.0 mm
05:55 PM 63.9°F17.7°C 24.3°F-4.3°C 22% 0.5 mph NE0.8 kmh NE 2.2 mph3.5 kmh 30.20 in1022.7 mb 0.00 in0.0 mm 0.00 in0.0 mm 0.00 in0.0 mm
05:50 PM 64.0°F17.8°C 24.5°F-4.2°C 22% 1.2 mph NE1.9 kmh NE 3.1 mph5.0 kmh 30.20 in1022.7 mb 0.00 in0.0 mm 0.00 in0.0 mm 0.00 in0.0 mm
05:45 PM 64.0°F17.8°C 24.5°F-4.2°C 22% 1.8 mph NE2.9 kmh NE 3.1 mph5.0 kmh 30.20 in1022.7 mb 0.00 in0.0 mm 0.00 in0.0 mm 0.00 in0.0 mm
05:40 PM 64.0°F17.8°C 24.5°F-4.2°C 22% 1.8 mph NE2.9 kmh NE 3.8 mph6.1 kmh 30.20 in1022.7 mb 0.00 in0.0 mm 0.00 in0.0 mm 0.00 in0.0 mm
05:35 PM 64.2°F17.9°C 24.6°F-4.1°C 22% 1.6 mph NE2.6 kmh NE 3.8 mph6.1 kmh 30.20 in1022.7 mb 0.00 in0.0 mm 0.00 in0.0 mm 0.00 in0.0 mm
05:30 PM 64.2°F17.9°C 24.6°F-4.1°C 22% 2.5 mph NE4.0 kmh NE 6.0 mph9.7 kmh 30.20 in1022.7 mb 0.00 in0.0 mm 0.00 in0.0 mm 0.00 in0.0 mm
05:25 PM 64.2°F17.9°C 23.5°F-4.7°C 21% 3.7 mph NNE6.0 kmh NNE 6.9 mph11.1 kmh 30.20 in1022.7 mb 0.00 in0.0 mm 0.00 in0.0 mm 0.00 in0.0 mm
05:20 PM 64.6°F18.1°C 24.9°F-3.9°C 22% 3.8 mph NE6.1 kmh NE 6.9 mph11.1 kmh 30.20 in1022.7 mb 0.00 in0.0 mm 0.00 in0.0 mm 0.00 in0.0 mm
05:15 PM 64.4°F18.0°C 24.8°F-4.0°C 22% 3.8 mph NE6.1 kmh NE 6.9 mph11.1 kmh 30.20 in1022.7 mb 0.00 in0.0 mm 0.00 in0.0 mm 0.00 in0.0 mm
05:10 PM 64.6°F18.1°C 24.9°F-3.9°C 22% 4.3 mph NE6.9 kmh NE 9.2 mph14.8 kmh 30.20 in1022.7 mb 0.00 in0.0 mm 0.00 in0.0 mm 0.00 in0.0 mm
05:05 PM 64.9°F18.3°C 25.2°F-3.8°C 22% 4.6 mph NNE7.4 kmh NNE 9.2 mph14.8 kmh 30.20 in1022.7 mb 0.00 in0.0 mm 0.00 in0.0 mm 0.00 in0.0 mm
05:00 PM 65.1°F18.4°C 25.4°F-3.7°C 22% 4.2 mph NE6.8 kmh NE 9.2 mph14.8 kmh 30.20 in1022.7 mb 0.00 in0.0 mm 0.00 in0.0 mm 0.00 in0.0 mm
04:55 PM 65.3°F18.5°C 25.5°F-3.6°C 22% 4.2 mph NE6.8 kmh NE 9.2 mph14.8 kmh 30.20 in1022.7 mb 0.00 in0.0 mm 0.00 in0.0 mm 0.00 in0.0 mm
04:50 PM 65.5°F18.6°C 25.7°F-3.5°C 22% 4.2 mph NE6.8 kmh NE 7.6 mph12.2 kmh 30.20 in1022.7 mb 0.00 in0.0 mm 0.00 in0.0 mm 0.00 in0.0 mm
04:45 PM 65.7°F18.7°C 26.9°F-2.8°C 23% 3.7 mph NE6.0 kmh NE 7.6 mph12.2 kmh 30.20 in1022.7 mb 0.00 in0.0 mm 0.00 in0.0 mm 0.00 in0.0 mm
04:40 PM 65.5°F18.6°C 25.7°F-3.5°C 22% 4.0 mph NE6.4 kmh NE 8.3 mph13.4 kmh 30.20 in1022.7 mb 0.00 in0.0 mm 0.00 in0.0 mm 0.00 in0.0 mm
04:35 PM 65.7°F18.7°C 25.8°F-3.4°C 22% 4.6 mph ENE7.4 kmh ENE 9.8 mph15.8 kmh 30.20 in1022.7 mb 0.00 in0.0 mm 0.00 in0.0 mm 0.00 in0.0 mm
04:30 PM 65.7°F18.7°C 25.8°F-3.4°C 22% 4.5 mph ENE7.2 kmh ENE 9.8 mph15.8 kmh 30.20 in1022.7 mb 0.00 in0.0 mm 0.00 in0.0 mm 0.00 in0.0 mm
04:25 PM 65.7°F18.7°C 26.9°F-2.8°C 23% 4.6 mph ENE7.4 kmh ENE 9.2 mph14.8 kmh 30.20 in1022.7 mb 0.00 in0.0 mm 0.00 in0.0 mm 0.00 in0.0 mm
04:20 PM 65.7°F18.7°C 26.9°F-2.8°C 23% 5.5 mph ENE8.9 kmh ENE 10.7 mph17.2 kmh 30.20 in1022.7 mb 0.00 in0.0 mm 0.00 in0.0 mm 0.00 in0.0 mm
04:15 PM 65.7°F18.7°C 25.8°F-3.4°C 22% 5.6 mph ENE9.0 kmh ENE 10.7 mph17.2 kmh 30.21 in1023.0 mb 0.00 in0.0 mm 0.00 in0.0 mm 0.00 in0.0 mm
04:10 PM 65.7°F18.7°C 25.8°F-3.4°C 22% 5.0 mph ENE8.0 kmh ENE 9.2 mph14.8 kmh 30.21 in1023.0 mb 0.00 in0.0 mm 0.00 in0.0 mm 0.00 in0.0 mm
04:05 PM 65.7°F18.7°C 25.8°F-3.4°C 22% 5.0 mph ENE8.0 kmh ENE 9.2 mph14.8 kmh 30.21 in1023.0 mb 0.00 in0.0 mm 0.00 in0.0 mm 0.00 in0.0 mm
04:00 PM 65.5°F18.6°C 25.7°F-3.5°C 22% 5.2 mph ENE8.4 kmh ENE 9.8 mph15.8 kmh 30.21 in1023.0 mb 0.00 in0.0 mm 0.00 in0.0 mm 0.00 in0.0 mm
03:55 PM 65.5°F18.6°C 25.7°F-3.5°C 22% 4.9 mph NE7.9 kmh NE 9.8 mph15.8 kmh 30.21 in1023.0 mb 0.00 in0.0 mm 0.00 in0.0 mm 0.00 in0.0 mm
03:50 PM 65.5°F18.6°C 25.7°F-3.5°C 22% 4.5 mph NE7.2 kmh NE 8.3 mph13.4 kmh 30.22 in1023.4 mb 0.00 in0.0 mm 0.00 in0.0 mm 0.00 in0.0 mm
03:45 PM 65.5°F18.6°C 25.7°F-3.5°C 22% 4.3 mph ENE6.9 kmh ENE 9.2 mph14.8 kmh 30.22 in1023.4 mb 0.00 in0.0 mm 0.00 in0.0 mm 0.00 in0.0 mm
03:40 PM 65.3°F18.5°C 25.5°F-3.6°C 22% 5.1 mph ENE8.2 kmh ENE 11.4 mph18.3 kmh 30.22 in1023.4 mb 0.00 in0.0 mm 0.00 in0.0 mm 0.00 in0.0 mm
03:35 PM 65.3°F18.5°C 25.5°F-3.6°C 22% 5.4 mph NE8.7 kmh NE 11.4 mph18.3 kmh 30.22 in1023.4 mb 0.00 in0.0 mm 0.00 in0.0 mm 0.00 in0.0 mm
03:30 PM 65.5°F18.6°C 25.7°F-3.5°C 22% 4.9 mph ENE7.9 kmh ENE 11.4 mph18.3 kmh 30.22 in1023.4 mb 0.00 in0.0 mm 0.00 in0.0 mm 0.00 in0.0 mm
03:25 PM 65.5°F18.6°C 25.7°F-3.5°C 22% 5.6 mph ENE9.0 kmh ENE 10.7 mph17.2 kmh 30.22 in1023.4 mb 0.00 in0.0 mm 0.00 in0.0 mm 0.00 in0.0 mm
03:20 PM 65.3°F18.5°C 25.5°F-3.6°C 22% 6.2 mph ENE10.0 kmh ENE 9.8 mph15.8 kmh 30.22 in1023.4 mb 0.00 in0.0 mm 0.00 in0.0 mm 0.00 in0.0 mm
03:15 PM 65.1°F18.4°C 25.4°F-3.7°C 22% 5.5 mph E8.9 kmh E 9.8 mph15.8 kmh 30.22 in1023.4 mb 0.00 in0.0 mm 0.00 in0.0 mm 0.00 in0.0 mm
03:10 PM 65.3°F18.5°C 25.5°F-3.6°C 22% 4.8 mph ENE7.7 kmh ENE 9.8 mph15.8 kmh 30.22 in1023.4 mb 0.00 in0.0 mm 0.00 in0.0 mm 0.00 in0.0 mm
03:05 PM 65.1°F18.4°C 25.4°F-3.7°C 22% 5.5 mph NE8.9 kmh NE 11.4 mph18.3 kmh 30.22 in1023.4 mb 0.00 in0.0 mm 0.00 in0.0 mm 0.00 in0.0 mm
03:00 PM 64.9°F18.3°C 25.2°F-3.8°C 22% 5.7 mph ENE9.2 kmh ENE 11.4 mph18.3 kmh 30.23 in1023.7 mb 0.00 in0.0 mm 0.00 in0.0 mm 0.00 in0.0 mm
02:55 PM 65.3°F18.5°C 25.5°F-3.6°C 22% 4.7 mph E7.6 kmh E 10.7 mph17.2 kmh 30.23 in1023.7 mb 0.00 in0.0 mm 0.00 in0.0 mm 0.00 in0.0 mm
02:50 PM 65.3°F18.5°C 25.5°F-3.6°C 22% 3.8 mph E6.1 kmh E 10.7 mph17.2 kmh 30.23 in1023.7 mb 0.00 in0.0 mm 0.00 in0.0 mm 0.00 in0.0 mm
02:45 PM 65.3°F18.5°C 26.6°F-3.0°C 23% 3.3 mph E5.3 kmh E 6.9 mph11.1 kmh 30.23 in1023.7 mb 0.00 in0.0 mm 0.00 in0.0 mm 0.00 in0.0 mm
02:40 PM 64.9°F18.3°C 28.3°F-2.1°C 25% 3.4 mph E5.5 kmh E 6.9 mph11.1 kmh 30.24 in1024.0 mb 0.00 in0.0 mm 0.00 in0.0 mm 0.00 in0.0 mm
02:35 PM 64.4°F18.0°C 27.8°F-2.3°C 25% 3.7 mph E6.0 kmh E 7.6 mph12.2 kmh 30.24 in1024.0 mb 0.00 in0.0 mm 0.00 in0.0 mm 0.00 in0.0 mm
02:30 PM 64.2°F17.9°C 26.7°F-2.9°C 24% 4.2 mph E6.8 kmh E 7.6 mph12.2 kmh 30.24 in1024.0 mb 0.00 in0.0 mm 0.00 in0.0 mm 0.00 in0.0 mm
02:25 PM 64.2°F17.9°C 27.7°F-2.4°C 25% 4.4 mph E7.1 kmh E 7.6 mph12.2 kmh 30.24 in1024.0 mb 0.00 in0.0 mm 0.00 in0.0 mm 0.00 in0.0 mm
02:20 PM 64.0°F17.8°C 27.5°F-2.5°C 25% 4.5 mph E7.2 kmh E 9.8 mph15.8 kmh 30.24 in1024.0 mb 0.00 in0.0 mm 0.00 in0.0 mm 0.00 in0.0 mm
02:15 PM 63.7°F17.6°C 27.2°F-2.7°C 25% 6.0 mph E9.7 kmh E 13.0 mph20.9 kmh 30.25 in1024.4 mb 0.00 in0.0 mm 0.00 in0.0 mm 0.00 in0.0 mm
02:10 PM 63.5°F17.5°C 27.1°F-2.7°C 25% 7.3 mph E11.7 kmh E 13.0 mph20.9 kmh 30.25 in1024.4 mb 0.00 in0.0 mm 0.00 in0.0 mm 0.00 in0.0 mm
02:05 PM 63.5°F17.5°C 27.1°F-2.7°C 25% 6.9 mph E11.1 kmh E 13.0 mph20.9 kmh 30.25 in1024.4 mb 0.00 in0.0 mm 0.00 in0.0 mm 0.00 in0.0 mm
02:00 PM 63.7°F17.6°C 27.2°F-2.7°C 25% 6.2 mph E10.0 kmh E 12.1 mph19.5 kmh 30.25 in1024.4 mb 0.00 in0.0 mm 0.00 in0.0 mm 0.00 in0.0 mm
01:55 PM 63.7°F17.6°C 27.2°F-2.7°C 25% 5.6 mph E9.0 kmh E 9.8 mph15.8 kmh 30.25 in1024.4 mb 0.00 in0.0 mm 0.00 in0.0 mm 0.00 in0.0 mm
01:50 PM 63.7°F17.6°C 27.2°F-2.7°C 25% 4.9 mph E7.9 kmh E 9.8 mph15.8 kmh 30.26 in1024.7 mb 0.00 in0.0 mm 0.00 in0.0 mm 0.00 in0.0 mm
01:45 PM 63.7°F17.6°C 27.2°F-2.7°C 25% 5.5 mph E8.9 kmh E 10.7 mph17.2 kmh 30.26 in1024.7 mb 0.00 in0.0 mm 0.00 in0.0 mm 0.00 in0.0 mm
01:40 PM 63.1°F17.3°C 26.8°F-2.9°C 25% 6.8 mph ENE10.9 kmh ENE 12.1 mph19.5 kmh 30.26 in1024.7 mb 0.00 in0.0 mm 0.00 in0.0 mm 0.00 in0.0 mm
01:35 PM 63.1°F17.3°C 26.8°F-2.9°C 25% 6.8 mph ENE10.9 kmh ENE 13.0 mph20.9 kmh 30.26 in1024.7 mb 0.00 in0.0 mm 0.00 in0.0 mm 0.00 in0.0 mm
01:30 PM 63.1°F17.3°C 26.8°F-2.9°C 25% 5.9 mph ENE9.5 kmh ENE 13.0 mph20.9 kmh 30.27 in1025.1 mb 0.00 in0.0 mm 0.00 in0.0 mm 0.00 in0.0 mm
01:25 PM 63.3°F17.4°C 26.9°F-2.8°C 25% 5.7 mph ENE9.2 kmh ENE 11.4 mph18.3 kmh 30.27 in1025.1 mb 0.00 in0.0 mm 0.00 in0.0 mm 0.00 in0.0 mm
01:20 PM 63.0°F17.2°C 26.6°F-3.0°C 25% 6.8 mph ENE10.9 kmh ENE 15.9 mph25.6 kmh 30.27 in1025.1 mb 0.00 in0.0 mm 0.00 in0.0 mm 0.00 in0.0 mm
01:15 PM 62.8°F17.1°C 26.5°F-3.1°C 25% 7.6 mph E12.2 kmh E 15.9 mph25.6 kmh 30.28 in1025.4 mb 0.00 in0.0 mm 0.00 in0.0 mm 0.00 in0.0 mm
01:10 PM 62.8°F17.1°C 26.5°F-3.1°C 25% 6.2 mph E10.0 kmh E 14.5 mph23.3 kmh 30.28 in1025.4 mb 0.00 in0.0 mm 0.00 in0.0 mm 0.00 in0.0 mm
01:05 PM 62.8°F17.1°C 26.5°F-3.1°C 25% 6.0 mph ENE9.7 kmh ENE 13.0 mph20.9 kmh 30.27 in1025.1 mb 0.00 in0.0 mm 0.00 in0.0 mm 0.00 in0.0 mm
01:00 PM 62.8°F17.1°C 26.5°F-3.1°C 25% 6.0 mph E9.7 kmh E 13.0 mph20.9 kmh 30.28 in1025.4 mb 0.00 in0.0 mm 0.00 in0.0 mm 0.00 in0.0 mm
12:55 PM 62.8°F17.1°C 26.5°F-3.1°C 25% 5.6 mph SE9.0 kmh SE 10.7 mph17.2 kmh 30.28 in1025.4 mb 0.00 in0.0 mm 0.00 in0.0 mm 0.00 in0.0 mm
12:50 PM 63.0°F17.2°C 26.6°F-3.0°C 25% 4.8 mph E7.7 kmh E 10.7 mph17.2 kmh 30.28 in1025.4 mb 0.00 in0.0 mm 0.00 in0.0 mm 0.00 in0.0 mm
12:45 PM 63.0°F17.2°C 27.6°F-2.4°C 26% 4.5 mph ENE7.2 kmh ENE 9.2 mph14.8 kmh 30.29 in1025.7 mb 0.00 in0.0 mm 0.00 in0.0 mm 0.00 in0.0 mm
12:40 PM 62.6°F17.0°C 27.3°F-2.6°C 26% 5.0 mph ENE8.0 kmh ENE 9.2 mph14.8 kmh 30.29 in1025.7 mb 0.00 in0.0 mm 0.00 in0.0 mm 0.00 in0.0 mm
12:35 PM 62.2°F16.8°C 27.9°F-2.3°C 27% 5.8 mph NE9.3 kmh NE 13.6 mph21.9 kmh 30.29 in1025.7 mb 0.00 in0.0 mm 0.00 in0.0 mm 0.00 in0.0 mm
12:30 PM 61.7°F16.5°C 28.3°F-2.1°C 28% 7.2 mph ENE11.6 kmh ENE 13.6 mph21.9 kmh 30.29 in1025.7 mb 0.00 in0.0 mm 0.00 in0.0 mm 0.00 in0.0 mm
12:25 PM 61.7°F16.5°C 30.0°F-1.1°C 30% 7.4 mph ENE11.9 kmh ENE 13.6 mph21.9 kmh 30.29 in1025.7 mb 0.00 in0.0 mm 0.00 in0.0 mm 0.00 in0.0 mm
12:20 PM 61.3°F16.3°C 29.7°F-1.3°C 30% 6.9 mph NE11.1 kmh NE 12.1 mph19.5 kmh 30.29 in1025.7 mb 0.00 in0.0 mm 0.00 in0.0 mm 0.00 in0.0 mm
12:15 PM 61.0°F16.1°C 30.9°F-0.6°C 32% 6.9 mph NE11.1 kmh NE 10.7 mph17.2 kmh 30.29 in1025.7 mb 0.00 in0.0 mm 0.00 in0.0 mm 0.00 in0.0 mm
12:10 PM 61.0°F16.1°C 30.9°F-0.6°C 32% 6.7 mph NE10.8 kmh NE 10.7 mph17.2 kmh 30.29 in1025.7 mb 0.00 in0.0 mm 0.00 in0.0 mm 0.00 in0.0 mm
12:05 PM 61.0°F16.1°C 30.9°F-0.6°C 32% 6.1 mph NE9.8 kmh NE 10.7 mph17.2 kmh 30.29 in1025.7 mb 0.00 in0.0 mm 0.00 in0.0 mm 0.00 in0.0 mm
12:00 PM 61.0°F16.1°C 30.9°F-0.6°C 32% 6.4 mph ENE10.3 kmh ENE 11.4 mph18.3 kmh 30.29 in1025.7 mb 0.00 in0.0 mm 0.00 in0.0 mm 0.00 in0.0 mm
11:55 AM 61.0°F16.1°C 30.9°F-0.6°C 32% 6.7 mph ENE10.8 kmh ENE 11.4 mph18.3 kmh 30.29 in1025.7 mb 0.00 in0.0 mm 0.00 in0.0 mm 0.00 in0.0 mm
11:50 AM 61.0°F16.1°C 30.9°F-0.6°C 32% 6.1 mph NE9.8 kmh NE 11.4 mph18.3 kmh 30.29 in1025.7 mb 0.00 in0.0 mm 0.00 in0.0 mm 0.00 in0.0 mm
11:45 AM 61.0°F16.1°C 30.9°F-0.6°C 32% 5.7 mph NE9.2 kmh NE 11.4 mph18.3 kmh 30.29 in1025.7 mb 0.00 in0.0 mm 0.00 in0.0 mm 0.00 in0.0 mm
11:40 AM 61.0°F16.1°C 31.7°F-0.2°C 33% 4.7 mph NE7.6 kmh NE 10.7 mph17.2 kmh 30.29 in1025.7 mb 0.00 in0.0 mm 0.00 in0.0 mm 0.00 in0.0 mm
11:35 AM 60.4°F15.8°C 32.7°F0.4°C 35% 4.3 mph ENE6.9 kmh ENE 7.6 mph12.2 kmh 30.29 in1025.7 mb 0.00 in0.0 mm 0.00 in0.0 mm 0.00 in0.0 mm
11:30 AM 59.9°F15.5°C 32.9°F0.5°C 36% 4.7 mph ENE7.6 kmh ENE 9.2 mph14.8 kmh 30.29 in1025.7 mb 0.00 in0.0 mm 0.00 in0.0 mm 0.00 in0.0 mm
11:25 AM 59.5°F15.3°C 33.3°F0.7°C 37% 4.2 mph E6.8 kmh E 9.2 mph14.8 kmh 30.29 in1025.7 mb 0.00 in0.0 mm 0.00 in0.0 mm 0.00 in0.0 mm
11:20 AM 59.4°F15.2°C 33.8°F1.0°C 38% 3.8 mph ENE6.1 kmh ENE 8.3 mph13.4 kmh 30.29 in1025.7 mb 0.00 in0.0 mm 0.00 in0.0 mm 0.00 in0.0 mm
11:15 AM 59.0°F15.0°C 33.4°F0.8°C 38% 4.6 mph NE7.4 kmh NE 8.3 mph13.4 kmh 30.29 in1025.7 mb 0.00 in0.0 mm 0.00 in0.0 mm 0.00 in0.0 mm
11:10 AM 58.8°F14.9°C 35.2°F1.8°C 41% 5.0 mph NE8.0 kmh NE 8.3 mph13.4 kmh 30.29 in1025.7 mb 0.00 in0.0 mm 0.00 in0.0 mm 0.00 in0.0 mm
11:05 AM 58.8°F14.9°C 35.8°F2.1°C 42% 4.5 mph NE7.2 kmh NE 8.3 mph13.4 kmh 30.29 in1025.7 mb 0.00 in0.0 mm 0.00 in0.0 mm 0.00 in0.0 mm
11:00 AM 58.8°F14.9°C 36.4°F2.4°C 43% 3.8 mph NE6.1 kmh NE 6.9 mph11.1 kmh 30.29 in1025.7 mb 0.00 in0.0 mm 0.00 in0.0 mm 0.00 in0.0 mm
10:55 AM 58.5°F14.7°C 35.5°F1.9°C 42% 3.9 mph NE6.3 kmh NE 6.9 mph11.1 kmh 30.29 in1025.7 mb 0.00 in0.0 mm 0.00 in0.0 mm 0.00 in0.0 mm
10:50 AM 58.6°F14.8°C 34.4°F1.3°C 40% 2.9 mph ENE4.7 kmh ENE 6.0 mph9.7 kmh 30.29 in1025.7 mb 0.00 in0.0 mm 0.00 in0.0 mm 0.00 in0.0 mm
10:45 AM 59.0°F15.0°C 33.4°F0.8°C 38% 2.0 mph ENE3.2 kmh ENE 5.4 mph8.7 kmh 30.29 in1025.7 mb 0.00 in0.0 mm 0.00 in0.0 mm 0.00 in0.0 mm
10:40 AM 58.5°F14.7°C 33.6°F0.9°C 39% 2.5 mph NE4.0 kmh NE 5.4 mph8.7 kmh 30.29 in1025.7 mb 0.00 in0.0 mm 0.00 in0.0 mm 0.00 in0.0 mm
10:35 AM 58.3°F14.6°C 32.8°F0.4°C 38% 2.4 mph NE3.9 kmh NE 5.4 mph8.7 kmh 30.29 in1025.7 mb 0.00 in0.0 mm 0.00 in0.0 mm 0.00 in0.0 mm
10:30 AM 58.3°F14.6°C 32.1°F0.1°C 37% 2.1 mph NE3.4 kmh NE 4.5 mph7.2 kmh 30.30 in1026.1 mb 0.00 in0.0 mm 0.00 in0.0 mm 0.00 in0.0 mm
10:25 AM 58.1°F14.5°C 31.3°F-0.4°C 36% 2.0 mph NE3.2 kmh NE 4.5 mph7.2 kmh 30.29 in1025.7 mb 0.00 in0.0 mm 0.00 in0.0 mm 0.00 in0.0 mm
10:20 AM 58.3°F14.6°C 31.5°F-0.3°C 36% 1.7 mph NE2.7 kmh NE 3.8 mph6.1 kmh 30.29 in1025.7 mb 0.00 in0.0 mm 0.00 in0.0 mm 0.00 in0.0 mm
10:15 AM 58.1°F14.5°C 30.6°F-0.8°C 35% 1.5 mph NE2.4 kmh NE 3.8 mph6.1 kmh 30.29 in1025.7 mb 0.00 in0.0 mm 0.00 in0.0 mm 0.00 in0.0 mm
10:10 AM 58.5°F14.7°C 30.9°F-0.6°C 35% 1.1 mph ENE1.8 kmh ENE 2.2 mph3.5 kmh 30.29 in1025.7 mb 0.00 in0.0 mm 0.00 in0.0 mm 0.00 in0.0 mm
10:05 AM 59.0°F15.0°C 30.7°F-0.7°C 34% 0.7 mph E1.1 kmh E 2.2 mph3.5 kmh 30.29 in1025.7 mb 0.00 in0.0 mm 0.00 in0.0 mm 0.00 in0.0 mm
10:00 AM 59.2°F15.1°C 30.8°F-0.7°C 34% 0.6 mph E1.0 kmh E 2.2 mph3.5 kmh 30.29 in1025.7 mb 0.00 in0.0 mm 0.00 in0.0 mm 0.00 in0.0 mm
09:55 AM 58.6°F14.8°C 31.1°F-0.5°C 35% 0.5 mph ESE0.8 kmh ESE 2.2 mph3.5 kmh 30.29 in1025.7 mb 0.00 in0.0 mm 0.00 in0.0 mm 0.00 in0.0 mm
09:50 AM 58.1°F14.5°C 32.0°F0.0°C 37% 0.3 mph ESE0.5 kmh ESE 2.2 mph3.5 kmh 30.29 in1025.7 mb 0.00 in0.0 mm 0.00 in0.0 mm 0.00 in0.0 mm
09:45 AM 57.0°F13.9°C 32.3°F0.2°C 39% 0.1 mph ESE0.2 kmh ESE 2.2 mph3.5 kmh 30.29 in1025.7 mb 0.00 in0.0 mm 0.00 in0.0 mm 0.00 in0.0 mm
09:40 AM 55.8°F13.2°C 32.4°F0.2°C 41% 1.8 mph SSE2.9 kmh SSE 6.9 mph11.1 kmh 30.29 in1025.7 mb 0.00 in0.0 mm 0.00 in0.0 mm 0.00 in0.0 mm
09:35 AM 54.5°F12.5°C 31.3°F-0.4°C 41% 3.8 mph S6.1 kmh S 6.9 mph11.1 kmh 30.29 in1025.7 mb 0.00 in0.0 mm 0.00 in0.0 mm 0.00 in0.0 mm
09:30 AM 53.8°F12.1°C 31.8°F-0.1°C 43% 4.2 mph S6.8 kmh S 7.6 mph12.2 kmh 30.29 in1025.7 mb 0.00 in0.0 mm 0.00 in0.0 mm 0.00 in0.0 mm
09:25 AM 52.7°F11.5°C 32.0°F0.0°C 45% 4.6 mph S7.4 kmh S 7.6 mph12.2 kmh 30.29 in1025.7 mb 0.00 in0.0 mm 0.00 in0.0 mm 0.00 in0.0 mm
09:20 AM 52.0°F11.1°C 31.3°F-0.4°C 45% 5.3 mph S8.5 kmh S 9.2 mph14.8 kmh 30.29 in1025.7 mb 0.00 in0.0 mm 0.00 in0.0 mm 0.00 in0.0 mm
09:15 AM 51.4°F10.8°C 31.4°F-0.3°C 46% 5.8 mph S9.3 kmh S 11.4 mph18.3 kmh 30.29 in1025.7 mb 0.00 in0.0 mm 0.00 in0.0 mm 0.00 in0.0 mm
09:10 AM 51.1°F10.6°C 31.6°F-0.2°C 47% 5.7 mph S9.2 kmh S 11.4 mph18.3 kmh 30.29 in1025.7 mb 0.00 in0.0 mm 0.00 in0.0 mm 0.00 in0.0 mm
09:05 AM 50.7°F10.4°C 31.2°F-0.4°C 47% 5.1 mph S8.2 kmh S 8.3 mph13.4 kmh 30.29 in1025.7 mb 0.00 in0.0 mm 0.00 in0.0 mm 0.00 in0.0 mm
09:00 AM 50.2°F10.1°C 30.7°F-0.7°C 47% 3.9 mph S6.3 kmh S 7.6 mph12.2 kmh 30.29 in1025.7 mb 0.00 in0.0 mm 0.00 in0.0 mm 0.00 in0.0 mm
08:55 AM 50.0°F10.0°C 30.6°F-0.8°C 47% 2.9 mph S4.7 kmh S 6.0 mph9.7 kmh 30.29 in1025.7 mb 0.00 in0.0 mm 0.00 in0.0 mm 0.00 in0.0 mm
08:50 AM 49.5°F9.7°C 31.1°F-0.5°C 49% 2.4 mph S3.9 kmh S 4.5 mph7.2 kmh 30.29 in1025.7 mb 0.00 in0.0 mm 0.00 in0.0 mm 0.00 in0.0 mm
08:45 AM 48.6°F9.2°C 30.3°F-0.9°C 49% 2.7 mph S4.3 kmh S 6.0 mph9.7 kmh 30.29 in1025.7 mb 0.00 in0.0 mm 0.00 in0.0 mm 0.00 in0.0 mm
08:40 AM 47.8°F8.8°C 30.1°F-1.1°C 50% 2.9 mph S4.7 kmh S 6.0 mph9.7 kmh 30.28 in1025.4 mb 0.00 in0.0 mm 0.00 in0.0 mm 0.00 in0.0 mm
08:35 AM 47.5°F8.6°C 29.8°F-1.2°C 50% 3.1 mph S5.0 kmh S 4.5 mph7.2 kmh 30.28 in1025.4 mb 0.00 in0.0 mm 0.00 in0.0 mm 0.00 in0.0 mm
08:30 AM 47.5°F8.6°C 29.3°F-1.5°C 49% 3.0 mph SSW4.8 kmh SSW 4.5 mph7.2 kmh 30.28 in1025.4 mb 0.00 in0.0 mm 0.00 in0.0 mm 0.00 in0.0 mm
08:25 AM 47.3°F8.5°C 29.1°F-1.6°C 49% 3.4 mph S5.5 kmh S 8.3 mph13.4 kmh 30.28 in1025.4 mb 0.00 in0.0 mm 0.00 in0.0 mm 0.00 in0.0 mm
08:20 AM 47.3°F8.5°C 29.1°F-1.6°C 49% 3.6 mph S5.8 kmh S 8.3 mph13.4 kmh 30.28 in1025.4 mb 0.00 in0.0 mm 0.00 in0.0 mm 0.00 in0.0 mm
08:15 AM 46.8°F8.2°C 28.6°F-1.9°C 49% 2.9 mph S4.7 kmh S 5.4 mph8.7 kmh 30.27 in1025.1 mb 0.00 in0.0 mm 0.00 in0.0 mm 0.00 in0.0 mm
08:10 AM 47.1°F8.4°C 28.5°F-1.9°C 48% 2.8 mph S4.5 kmh S 4.5 mph7.2 kmh 30.28 in1025.4 mb 0.00 in0.0 mm 0.00 in0.0 mm 0.00 in0.0 mm
08:05 AM 47.3°F8.5°C 28.1°F-2.2°C 47% 2.6 mph S4.2 kmh S 4.5 mph7.2 kmh 30.28 in1025.4 mb 0.00 in0.0 mm 0.00 in0.0 mm 0.00 in0.0 mm
08:00 AM 47.5°F8.6°C 28.3°F-2.1°C 47% 2.7 mph SSW4.3 kmh SSW 4.5 mph7.2 kmh 30.28 in1025.4 mb 0.00 in0.0 mm 0.00 in0.0 mm 0.00 in0.0 mm
07:55 AM 47.8°F8.8°C 28.1°F-2.2°C 46% 2.6 mph SSW4.2 kmh SSW 4.5 mph7.2 kmh 30.28 in1025.4 mb 0.00 in0.0 mm 0.00 in0.0 mm 0.00 in0.0 mm
07:50 AM 48.0°F8.9°C 28.2°F-2.1°C 46% 2.2 mph SSW3.5 kmh SSW 3.8 mph6.1 kmh 30.28 in1025.4 mb 0.00 in0.0 mm 0.00 in0.0 mm 0.00 in0.0 mm
07:45 AM 48.4°F9.1°C 28.0°F-2.2°C 45% 2.1 mph SSW3.4 kmh SSW 4.5 mph7.2 kmh 30.27 in1025.1 mb 0.00 in0.0 mm 0.00 in0.0 mm 0.00 in0.0 mm
07:40 AM 48.6°F9.2°C 28.2°F-2.1°C 45% 2.6 mph SSW4.2 kmh SSW 6.9 mph11.1 kmh 30.27 in1025.1 mb 0.00 in0.0 mm 0.00 in0.0 mm 0.00 in0.0 mm
07:35 AM 48.6°F9.2°C 28.2°F-2.1°C 45% 3.6 mph S5.8 kmh S 7.6 mph12.2 kmh 30.27 in1025.1 mb 0.00 in0.0 mm 0.00 in0.0 mm 0.00 in0.0 mm
07:30 AM 48.9°F9.4°C 28.0°F-2.2°C 44% 4.5 mph S7.2 kmh S 7.6 mph12.2 kmh 30.27 in1025.1 mb 0.00 in0.0 mm 0.00 in0.0 mm 0.00 in0.0 mm
07:25 AM 49.3°F9.6°C 28.3°F-2.1°C 44% 5.3 mph S8.5 kmh S 9.8 mph15.8 kmh 30.26 in1024.7 mb 0.00 in0.0 mm 0.00 in0.0 mm 0.00 in0.0 mm
07:20 AM 49.1°F9.5°C 28.7°F-1.8°C 45% 5.7 mph S9.2 kmh S 9.8 mph15.8 kmh 30.26 in1024.7 mb 0.00 in0.0 mm 0.00 in0.0 mm 0.00 in0.0 mm
07:15 AM 48.7°F9.3°C 28.4°F-2.0°C 45% 4.9 mph S7.9 kmh S 9.8 mph15.8 kmh 30.26 in1024.7 mb 0.00 in0.0 mm 0.00 in0.0 mm 0.00 in0.0 mm
07:10 AM 48.7°F9.3°C 28.4°F-2.0°C 45% 4.4 mph S7.1 kmh S 8.3 mph13.4 kmh 30.26 in1024.7 mb 0.00 in0.0 mm 0.00 in0.0 mm 0.00 in0.0 mm
07:05 AM 48.7°F9.3°C 28.4°F-2.0°C 45% 4.4 mph S7.1 kmh S 6.9 mph11.1 kmh 30.27 in1025.1 mb 0.00 in0.0 mm 0.00 in0.0 mm 0.00 in0.0 mm
07:00 AM 48.7°F9.3°C 28.4°F-2.0°C 45% 4.3 mph S6.9 kmh S 7.6 mph12.2 kmh 30.26 in1024.7 mb 0.00 in0.0 mm 0.00 in0.0 mm 0.00 in0.0 mm
06:55 AM 48.7°F9.3°C 28.4°F-2.0°C 45% 4.4 mph S7.1 kmh S 7.6 mph12.2 kmh 30.26 in1024.7 mb 0.00 in0.0 mm 0.00 in0.0 mm 0.00 in0.0 mm
06:50 AM 48.7°F9.3°C 28.4°F-2.0°C 45% 4.8 mph S7.7 kmh S 7.6 mph12.2 kmh 30.26 in1024.7 mb 0.00 in0.0 mm 0.00 in0.0 mm 0.00 in0.0 mm
06:45 AM 48.9°F9.4°C 28.5°F-1.9°C 45% 5.2 mph S8.4 kmh S 8.3 mph13.4 kmh 30.26 in1024.7 mb 0.00 in0.0 mm 0.00 in0.0 mm 0.00 in0.0 mm
06:40 AM 49.1°F9.5°C 28.7°F-1.8°C 45% 5.5 mph S8.9 kmh S 9.2 mph14.8 kmh 30.26 in1024.7 mb 0.00 in0.0 mm 0.00 in0.0 mm 0.00 in0.0 mm
06:35 AM 49.5°F9.7°C 29.0°F-1.7°C 45% 6.3 mph S10.1 kmh S 9.8 mph15.8 kmh 30.26 in1024.7 mb 0.00 in0.0 mm 0.00 in0.0 mm 0.00 in0.0 mm
06:30 AM 49.5°F9.7°C 29.0°F-1.7°C 45% 6.8 mph S10.9 kmh S 9.8 mph15.8 kmh 30.26 in1024.7 mb 0.00 in0.0 mm 0.00 in0.0 mm 0.00 in0.0 mm
06:25 AM 49.5°F9.7°C 29.0°F-1.7°C 45% 6.3 mph S10.1 kmh S 9.8 mph15.8 kmh 30.26 in1024.7 mb 0.00 in0.0 mm 0.00 in0.0 mm 0.00 in0.0 mm
06:20 AM 49.5°F9.7°C 29.6°F-1.3°C 46% 5.9 mph S9.5 kmh S 9.8 mph15.8 kmh 30.26 in1024.7 mb 0.00 in0.0 mm 0.00 in0.0 mm 0.00 in0.0 mm
06:15 AM 49.6°F9.8°C 29.7°F-1.3°C 46% 5.9 mph S9.5 kmh S 9.8 mph15.8 kmh 30.26 in1024.7 mb 0.00 in0.0 mm 0.00 in0.0 mm 0.00 in0.0 mm
06:10 AM 49.8°F9.9°C 29.9°F-1.2°C 46% 5.6 mph SE9.0 kmh SE 9.8 mph15.8 kmh 30.26 in1024.7 mb 0.00 in0.0 mm 0.00 in0.0 mm 0.00 in0.0 mm
06:05 AM 49.6°F9.8°C 30.2°F-1.0°C 47% 5.9 mph SSE9.5 kmh SSE 9.8 mph15.8 kmh 30.26 in1024.7 mb 0.00 in0.0 mm 0.00 in0.0 mm 0.00 in0.0 mm
06:00 AM 49.6°F9.8°C 30.2°F-1.0°C 47% 6.1 mph S9.8 kmh S 9.8 mph15.8 kmh 30.26 in1024.7 mb 0.00 in0.0 mm 0.00 in0.0 mm 0.00 in0.0 mm
05:55 AM 49.6°F9.8°C 30.8°F-0.7°C 48% 5.8 mph S9.3 kmh S 9.8 mph15.8 kmh 30.26 in1024.7 mb 0.00 in0.0 mm 0.00 in0.0 mm 0.00 in0.0 mm
05:50 AM 49.6°F9.8°C 30.8°F-0.7°C 48% 5.8 mph S9.3 kmh S 9.8 mph15.8 kmh 30.26 in1024.7 mb 0.00 in0.0 mm 0.00 in0.0 mm 0.00 in0.0 mm
05:45 AM 49.8°F9.9°C 30.9°F-0.6°C 48% 5.7 mph S9.2 kmh S 9.8 mph15.8 kmh 30.25 in1024.4 mb 0.00 in0.0 mm 0.00 in0.0 mm 0.00 in0.0 mm
05:40 AM 50.0°F10.0°C 30.6°F-0.8°C 47% 6.0 mph S9.7 kmh S 9.2 mph14.8 kmh 30.26 in1024.7 mb 0.00 in0.0 mm 0.00 in0.0 mm 0.00 in0.0 mm
05:35 AM 50.0°F10.0°C 30.6°F-0.8°C 47% 6.0 mph S9.7 kmh S 9.2 mph14.8 kmh 30.26 in1024.7 mb 0.00 in0.0 mm 0.00 in0.0 mm 0.00 in0.0 mm
05:30 AM 50.2°F10.1°C 30.7°F-0.7°C 47% 6.4 mph S10.3 kmh S 9.8 mph15.8 kmh 30.26 in1024.7 mb 0.00 in0.0 mm 0.00 in0.0 mm 0.00 in0.0 mm
05:25 AM 50.2°F10.1°C 31.3°F-0.4°C 48% 6.9 mph S11.1 kmh S 10.7 mph17.2 kmh 30.26 in1024.7 mb 0.00 in0.0 mm 0.00 in0.0 mm 0.00 in0.0 mm
05:20 AM 50.0°F10.0°C 31.6°F-0.2°C 49% 6.6 mph S10.6 kmh S 11.4 mph18.3 kmh 30.26 in1024.7 mb 0.00 in0.0 mm 0.00 in0.0 mm 0.00 in0.0 mm
05:15 AM 49.5°F9.7°C 32.1°F0.1°C 51% 5.7 mph S9.2 kmh S 11.4 mph18.3 kmh 30.26 in1024.7 mb 0.00 in0.0 mm 0.00 in0.0 mm 0.00 in0.0 mm
05:10 AM 49.3°F9.6°C 32.4°F0.2°C 52% 4.5 mph S7.2 kmh S 8.3 mph13.4 kmh 30.26 in1024.7 mb 0.00 in0.0 mm 0.00 in0.0 mm 0.00 in0.0 mm
05:05 AM 49.3°F9.6°C 32.4°F0.2°C 52% 3.6 mph S5.8 kmh S 6.0 mph9.7 kmh 30.25 in1024.4 mb 0.00 in0.0 mm 0.00 in0.0 mm 0.00 in0.0 mm
05:00 AM 49.5°F9.7°C 32.6°F0.3°C 52% 3.7 mph S6.0 kmh S 8.3 mph13.4 kmh 30.26 in1024.7 mb 0.00 in0.0 mm 0.00 in0.0 mm 0.00 in0.0 mm
04:55 AM 49.8°F9.9°C 32.9°F0.5°C 52% 4.7 mph S7.6 kmh S 8.3 mph13.4 kmh 30.26 in1024.7 mb 0.00 in0.0 mm 0.00 in0.0 mm 0.00 in0.0 mm
04:50 AM 49.8°F9.9°C 32.9°F0.5°C 52% 5.3 mph S8.5 kmh S 9.2 mph14.8 kmh 30.26 in1024.7 mb 0.00 in0.0 mm 0.00 in0.0 mm 0.00 in0.0 mm
04:45 AM 49.6°F9.8°C 32.7°F0.4°C 52% 5.3 mph S8.5 kmh S 9.2 mph14.8 kmh 30.25 in1024.4 mb 0.00 in0.0 mm 0.00 in0.0 mm 0.00 in0.0 mm
04:40 AM 50.0°F10.0°C 32.6°F0.3°C 51% 5.1 mph S8.2 kmh S 8.3 mph13.4 kmh 30.26 in1024.7 mb 0.00 in0.0 mm 0.00 in0.0 mm 0.00 in0.0 mm
04:35 AM 50.0°F10.0°C 32.1°F0.1°C 50% 5.1 mph SSE8.2 kmh SSE 8.3 mph13.4 kmh 30.26 in1024.7 mb 0.00 in0.0 mm 0.00 in0.0 mm 0.00 in0.0 mm
04:30 AM 50.2°F10.1°C 32.3°F0.2°C 50% 5.1 mph S8.2 kmh S 7.6 mph12.2 kmh 30.26 in1024.7 mb 0.00 in0.0 mm 0.00 in0.0 mm 0.00 in0.0 mm
04:25 AM 50.4°F10.2°C 32.4°F0.2°C 50% 5.3 mph S8.5 kmh S 9.2 mph14.8 kmh 30.26 in1024.7 mb 0.00 in0.0 mm 0.00 in0.0 mm 0.00 in0.0 mm
04:20 AM 50.7°F10.4°C 32.8°F0.4°C 50% 5.9 mph S9.5 kmh S 10.7 mph17.2 kmh 30.26 in1024.7 mb 0.00 in0.0 mm 0.00 in0.0 mm 0.00 in0.0 mm
04:15 AM 50.5°F10.3°C 32.6°F0.3°C 50% 6.2 mph S10.0 kmh S 10.7 mph17.2 kmh 30.26 in1024.7 mb 0.00 in0.0 mm 0.00 in0.0 mm 0.00 in0.0 mm
04:10 AM 50.4°F10.2°C 32.4°F0.2°C 50% 5.3 mph S8.5 kmh S 9.2 mph14.8 kmh 30.26 in1024.7 mb 0.00 in0.0 mm 0.00 in0.0 mm 0.00 in0.0 mm
04:05 AM 51.3°F10.7°C 32.3°F0.2°C 48% 4.8 mph S7.7 kmh S 8.3 mph13.4 kmh 30.26 in1024.7 mb 0.00 in0.0 mm 0.00 in0.0 mm 0.00 in0.0 mm
04:00 AM 51.3°F10.7°C 32.3°F0.2°C 48% 5.4 mph S8.7 kmh S 9.8 mph15.8 kmh 30.26 in1024.7 mb 0.00 in0.0 mm 0.00 in0.0 mm 0.00 in0.0 mm
03:55 AM 51.1°F10.6°C 32.1°F0.1°C 48% 5.8 mph S9.3 kmh S 9.8 mph15.8 kmh 30.27 in1025.1 mb 0.00 in0.0 mm 0.00 in0.0 mm 0.00 in0.0 mm
03:50 AM 50.9°F10.5°C 32.4°F0.2°C 49% 6.1 mph S9.8 kmh S 10.7 mph17.2 kmh 30.27 in1025.1 mb 0.00 in0.0 mm 0.00 in0.0 mm 0.00 in0.0 mm
03:45 AM 50.7°F10.4°C 32.8°F0.4°C 50% 6.2 mph S10.0 kmh S 10.7 mph17.2 kmh 30.27 in1025.1 mb 0.00 in0.0 mm 0.00 in0.0 mm 0.00 in0.0 mm
03:40 AM 50.4°F10.2°C 32.4°F0.2°C 50% 6.4 mph S10.3 kmh S 11.4 mph18.3 kmh 30.27 in1025.1 mb 0.00 in0.0 mm 0.00 in0.0 mm 0.00 in0.0 mm
03:35 AM 50.0°F10.0°C 32.6°F0.3°C 51% 6.1 mph S9.8 kmh S 11.4 mph18.3 kmh 30.27 in1025.1 mb 0.00 in0.0 mm 0.00 in0.0 mm 0.00 in0.0 mm
03:30 AM 49.8°F9.9°C 32.9°F0.5°C 52% 5.4 mph S8.7 kmh S 8.3 mph13.4 kmh 30.27 in1025.1 mb 0.00 in0.0 mm 0.00 in0.0 mm 0.00 in0.0 mm
03:25 AM 50.0°F10.0°C 32.6°F0.3°C 51% 5.5 mph S8.9 kmh S 9.8 mph15.8 kmh 30.27 in1025.1 mb 0.00 in0.0 mm 0.00 in0.0 mm 0.00 in0.0 mm
03:20 AM 50.0°F10.0°C 32.1°F0.1°C 50% 5.5 mph S8.9 kmh S 9.8 mph15.8 kmh 30.27 in1025.1 mb 0.00 in0.0 mm 0.00 in0.0 mm 0.00 in0.0 mm
03:15 AM 50.2°F10.1°C 31.8°F-0.1°C 49% 5.4 mph S8.7 kmh S 7.6 mph12.2 kmh 30.27 in1025.1 mb 0.00 in0.0 mm 0.00 in0.0 mm 0.00 in0.0 mm
03:10 AM 50.4°F10.2°C 31.4°F-0.3°C 48% 5.7 mph S9.2 kmh S 10.7 mph17.2 kmh 30.27 in1025.1 mb 0.00 in0.0 mm 0.00 in0.0 mm 0.00 in0.0 mm
03:05 AM 50.4°F10.2°C 31.4°F-0.3°C 48% 5.8 mph S9.3 kmh S 10.7 mph17.2 kmh 30.27 in1025.1 mb 0.00 in0.0 mm 0.00 in0.0 mm 0.00 in0.0 mm
03:00 AM 50.5°F10.3°C 31.1°F-0.5°C 47% 6.0 mph S9.7 kmh S 11.4 mph18.3 kmh 30.27 in1025.1 mb 0.00 in0.0 mm 0.00 in0.0 mm 0.00 in0.0 mm
02:55 AM 50.9°F10.5°C 30.9°F-0.6°C 46% 6.5 mph S10.5 kmh S 11.4 mph18.3 kmh 30.27 in1025.1 mb 0.00 in0.0 mm 0.00 in0.0 mm 0.00 in0.0 mm
02:50 AM 50.5°F10.3°C 31.1°F-0.5°C 47% 6.9 mph S11.1 kmh S 11.4 mph18.3 kmh 30.28 in1025.4 mb 0.00 in0.0 mm 0.00 in0.0 mm 0.00 in0.0 mm
02:45 AM 50.4°F10.2°C 30.9°F-0.6°C 47% 6.5 mph S10.5 kmh S 11.4 mph18.3 kmh 30.28 in1025.4 mb 0.00 in0.0 mm 0.00 in0.0 mm 0.00 in0.0 mm
02:40 AM 50.4°F10.2°C 30.9°F-0.6°C 47% 5.6 mph S9.0 kmh S 9.8 mph15.8 kmh 30.28 in1025.4 mb 0.00 in0.0 mm 0.00 in0.0 mm 0.00 in0.0 mm
02:35 AM 50.4°F10.2°C 30.9°F-0.6°C 47% 5.4 mph S8.7 kmh S 9.2 mph14.8 kmh 30.28 in1025.4 mb 0.00 in0.0 mm 0.00 in0.0 mm 0.00 in0.0 mm
02:30 AM 50.5°F10.3°C 31.1°F-0.5°C 47% 5.5 mph S8.9 kmh S 9.2 mph14.8 kmh 30.28 in1025.4 mb 0.00 in0.0 mm 0.00 in0.0 mm 0.00 in0.0 mm
02:25 AM 50.4°F10.2°C 30.9°F-0.6°C 47% 5.4 mph S8.7 kmh S 9.2 mph14.8 kmh 30.28 in1025.4 mb 0.00 in0.0 mm 0.00 in0.0 mm 0.00 in0.0 mm
02:20 AM 50.4°F10.2°C 30.9°F-0.6°C 47% 5.0 mph S8.0 kmh S 9.2 mph14.8 kmh 30.28 in1025.4 mb 0.00 in0.0 mm 0.00 in0.0 mm 0.00 in0.0 mm
02:15 AM 50.7°F10.4°C 31.2°F-0.4°C 47% 4.8 mph S7.7 kmh S 7.6 mph12.2 kmh 30.28 in1025.4 mb 0.00 in0.0 mm 0.00 in0.0 mm 0.00 in0.0 mm
02:10 AM 50.5°F10.3°C 31.1°F-0.5°C 47% 4.9 mph S7.9 kmh S 7.6 mph12.2 kmh 30.29 in1025.7 mb 0.00 in0.0 mm 0.00 in0.0 mm 0.00 in0.0 mm
02:05 AM 50.5°F10.3°C 31.6°F-0.2°C 48% 4.5 mph S7.2 kmh S 7.6 mph12.2 kmh 30.29 in1025.7 mb 0.00 in0.0 mm 0.00 in0.0 mm 0.00 in0.0 mm
02:00 AM 50.5°F10.3°C 31.1°F-0.5°C 47% 3.9 mph S6.3 kmh S 7.6 mph12.2 kmh 30.29 in1025.7 mb 0.00 in0.0 mm 0.00 in0.0 mm 0.00 in0.0 mm
01:55 AM 50.9°F10.5°C 31.4°F-0.3°C 47% 4.0 mph S6.4 kmh S 7.6 mph12.2 kmh 30.29 in1025.7 mb 0.00 in0.0 mm 0.00 in0.0 mm 0.00 in0.0 mm
01:50 AM 51.1°F10.6°C 31.6°F-0.2°C 47% 4.4 mph S7.1 kmh S 7.6 mph12.2 kmh 30.30 in1026.1 mb 0.00 in0.0 mm 0.00 in0.0 mm 0.00 in0.0 mm
01:45 AM 51.3°F10.7°C 31.7°F-0.2°C 47% 5.0 mph S8.0 kmh S 9.2 mph14.8 kmh 30.29 in1025.7 mb 0.00 in0.0 mm 0.00 in0.0 mm 0.00 in0.0 mm
01:40 AM 51.3°F10.7°C 31.2°F-0.4°C 46% 5.9 mph S9.5 kmh S 10.7 mph17.2 kmh 30.29 in1025.7 mb 0.00 in0.0 mm 0.00 in0.0 mm 0.00 in0.0 mm
01:35 AM 51.3°F10.7°C 31.7°F-0.2°C 47% 6.3 mph S10.1 kmh S 10.7 mph17.2 kmh 30.29 in1025.7 mb 0.00 in0.0 mm 0.00 in0.0 mm 0.00 in0.0 mm
01:30 AM 51.1°F10.6°C 31.6°F-0.2°C 47% 6.2 mph S10.0 kmh S 10.7 mph17.2 kmh 30.29 in1025.7 mb 0.00 in0.0 mm 0.00 in0.0 mm 0.00 in0.0 mm
01:25 AM 50.9°F10.5°C 31.4°F-0.3°C 47% 5.4 mph S8.7 kmh S 8.3 mph13.4 kmh 30.29 in1025.7 mb 0.00 in0.0 mm 0.00 in0.0 mm 0.00 in0.0 mm
01:20 AM 50.9°F10.5°C 31.4°F-0.3°C 47% 4.6 mph S7.4 kmh S 7.6 mph12.2 kmh 30.29 in1025.7 mb 0.00 in0.0 mm 0.00 in0.0 mm 0.00 in0.0 mm
01:15 AM 50.9°F10.5°C 31.4°F-0.3°C 47% 4.5 mph S7.2 kmh S 6.9 mph11.1 kmh 30.29 in1025.7 mb 0.00 in0.0 mm 0.00 in0.0 mm 0.00 in0.0 mm
01:10 AM 51.3°F10.7°C 31.2°F-0.4°C 46% 4.9 mph S7.9 kmh S 8.3 mph13.4 kmh 30.29 in1025.7 mb 0.00 in0.0 mm 0.00 in0.0 mm 0.00 in0.0 mm
01:05 AM 51.8°F11.0°C 31.1°F-0.5°C 45% 5.4 mph S8.7 kmh S 10.7 mph17.2 kmh 30.29 in1025.7 mb 0.00 in0.0 mm 0.00 in0.0 mm 0.00 in0.0 mm
01:00 AM 52.0°F11.1°C 31.3°F-0.4°C 45% 5.9 mph S9.5 kmh S 10.7 mph17.2 kmh 30.29 in1025.7 mb 0.00 in0.0 mm 0.00 in0.0 mm 0.00 in0.0 mm
12:55 AM 51.8°F11.0°C 31.7°F-0.2°C 46% 5.8 mph S9.3 kmh S 9.2 mph14.8 kmh 30.29 in1025.7 mb 0.00 in0.0 mm 0.00 in0.0 mm 0.00 in0.0 mm
12:50 AM 51.3°F10.7°C 31.7°F-0.2°C 47% 5.2 mph S8.4 kmh S 8.3 mph13.4 kmh 30.29 in1025.7 mb 0.00 in0.0 mm 0.00 in0.0 mm 0.00 in0.0 mm
12:45 AM 51.3°F10.7°C 31.7°F-0.2°C 47% 4.4 mph S7.1 kmh S 8.3 mph13.4 kmh 30.29 in1025.7 mb 0.00 in0.0 mm 0.00 in0.0 mm 0.00 in0.0 mm
12:40 AM 51.3°F10.7°C 31.7°F-0.2°C 47% 4.1 mph S6.6 kmh S 8.3 mph13.4 kmh 30.29 in1025.7 mb 0.00 in0.0 mm 0.00 in0.0 mm 0.00 in0.0 mm
12:35 AM 51.6°F10.9°C 32.1°F0.1°C 47% 4.4 mph S7.1 kmh S 8.3 mph13.4 kmh 30.29 in1025.7 mb 0.00 in0.0 mm 0.00 in0.0 mm 0.00 in0.0 mm
12:30 AM 52.0°F11.1°C 31.3°F-0.4°C 45% 5.1 mph S8.2 kmh S 10.7 mph17.2 kmh 30.29 in1025.7 mb 0.00 in0.0 mm 0.00 in0.0 mm 0.00 in0.0 mm
12:25 AM 51.8°F11.0°C 31.7°F-0.2°C 46% 5.4 mph S8.7 kmh S 10.7 mph17.2 kmh 30.29 in1025.7 mb 0.00 in0.0 mm 0.00 in0.0 mm 0.00 in0.0 mm
12:20 AM 52.0°F11.1°C 31.9°F-0.1°C 46% 5.1 mph S8.2 kmh S 9.2 mph14.8 kmh 30.29 in1025.7 mb 0.00 in0.0 mm 0.00 in0.0 mm 0.00 in0.0 mm
12:15 AM 52.0°F11.1°C 31.9°F-0.1°C 46% 4.6 mph S7.4 kmh S 7.6 mph12.2 kmh 30.29 in1025.7 mb 0.00 in0.0 mm 0.00 in0.0 mm 0.00 in0.0 mm
12:10 AM 51.8°F11.0°C 32.2°F0.1°C 47% 4.4 mph S7.1 kmh S 6.9 mph11.1 kmh 30.29 in1025.7 mb 0.00 in0.0 mm 0.00 in0.0 mm 0.00 in0.0 mm
12:05 AM 51.4°F10.8°C 32.9°F0.5°C 49% 4.0 mph S6.4 kmh S 6.9 mph11.1 kmh 30.29 in1025.7 mb 0.00 in0.0 mm 0.00 in0.0 mm 0.00 in0.0 mm
12:00 AM 51.4°F10.8°C 32.9°F0.5°C 49% 3.4 mph S5.5 kmh S 6.9 mph11.1 kmh 30.29 in1025.7 mb 0.00 in0.0 mm 0.00 in0.0 mm 0.00 in0.0 mm